Terminal Aerodrome Forecast
Issued by NWS

Home | Current Version | Previous Version | Text Only | Print | Product List | Glossary On
Versions: 1 2 3 4 5 6 7 8 9 10 11 12
265
FTUS45 KFGZ 071137
TAFPRC
TAF
KPRC 071137Z 0712/0812 VRB05KT P6SM SCT025 BKN250
      TEMPO 0712/0714 BKN025
     FM071530 VRB06KT P6SM SCT200=

USA.gov is the U.S. government's official web portal to all federal, state and local government web resources and services.